Los Antiguos, Argentina
Current Conditions -  °F | °C
As of 8:00 PM on Wednesday 26 Nov 2014 (Local Time) from SCBA Reporting Station
Clear Clear  
Wind Chill: 52°   Ceiling: Unl
Heat Index: 52°   Visibility: 6mi
Dew Point: 37°   Wind: 28mph
Humidity: 58%   Direction: 300°WNW
Pressure: 29.91"   Gusts: NA
Location:  46.55°S, 71.62°W
Report Text: SCBA 262300Z AUTO 30024KT CAVOK 11/03 Q1013
Loading
Personal Weather Stations






























Interactive Weather Map New forecast layout! Learn more

10-Day Weather Forecast

Advertisements
Track Severe Weather on mobile